createdAt,value
2016-12-18T00:00:27.676Z,805.17
2016-12-18T00:01:27.559Z,805.21
2016-12-18T00:02:27.573Z,805.17
2016-12-18T00:03:27.588Z,805.16
2016-12-18T00:04:27.580Z,804.83
2016-12-18T00:05:27.583Z,805.19
2016-12-18T00:06:28.514Z,805.39
2016-12-18T00:07:27.570Z,805.26
2016-12-18T00:08:27.573Z,805.23
2016-12-18T00:09:27.597Z,805.12
2016-12-18T00:10:27.602Z,804.91
2016-12-18T00:11:27.621Z,805.23
2016-12-18T00:12:27.567Z,804.57
2016-12-18T00:13:27.607Z,804.61
2016-12-18T00:14:27.594Z,804.45
2016-12-18T00:15:27.947Z,803.77
2016-12-18T00:16:27.629Z,804.08
2016-12-18T00:17:27.593Z,803.87
2016-12-18T00:18:27.924Z,803.94
2016-12-18T00:19:27.612Z,804.56
2016-12-18T00:20:27.755Z,804.43
2016-12-18T00:21:27.616Z,804.99
2016-12-18T00:22:27.584Z,804.81
2016-12-18T00:23:27.645Z,804.98
2016-12-18T00:24:27.964Z,804.66
2016-12-18T00:25:27.712Z,805.09
2016-12-18T00:26:27.595Z,805.07
2016-12-18T00:27:27.704Z,804.83
2016-12-18T00:28:27.621Z,805.7
2016-12-18T00:29:27.784Z,804.86
2016-12-18T00:30:27.823Z,804.4
2016-12-18T00:31:27.605Z,804.14
2016-12-18T00:32:27.619Z,804.03
2016-12-18T00:33:27.682Z,804.27
2016-12-18T00:34:27.616Z,803.48
2016-12-18T00:35:27.619Z,803.63
2016-12-18T00:36:27.627Z,802.96
2016-12-18T00:37:27.613Z,802.8
2016-12-18T00:38:28.027Z,802.84
2016-12-18T00:39:27.622Z,803.19
2016-12-18T00:40:27.810Z,803.3
2016-12-18T00:41:27.610Z,802.43
2016-12-18T00:42:27.618Z,802.62
2016-12-18T00:43:27.624Z,802.26
2016-12-18T00:44:27.610Z,803.05
2016-12-18T00:45:27.634Z,803.49
2016-12-18T00:46:27.624Z,803.32
2016-12-18T00:47:27.605Z,802.65
2016-12-18T00:48:27.623Z,803.27
2016-12-18T00:49:27.620Z,803.52
2016-12-18T00:50:28.496Z,803.68
2016-12-18T00:51:27.629Z,803.64
2016-12-18T00:52:27.628Z,804.07
2016-12-18T00:53:27.624Z,803.94
2016-12-18T00:54:27.623Z,804.05
2016-12-18T00:55:27.833Z,803.26
2016-12-18T00:56:27.627Z,803.6
2016-12-18T00:57:27.643Z,803.63
2016-12-18T00:58:27.627Z,803.76
2016-12-18T00:59:27.633Z,804.25
2016-12-18T01:00:27.632Z,804.06
2016-12-18T01:01:27.632Z,804.05
2016-12-18T01:02:27.655Z,804.36
2016-12-18T01:03:27.655Z,804.92
2016-12-18T01:04:27.650Z,805.2
2016-12-18T01:05:27.687Z,805.52
2016-12-18T01:06:27.632Z,805.87
2016-12-18T01:07:27.660Z,806.48
2016-12-18T01:08:27.650Z,806.12
2016-12-18T01:09:27.672Z,806.57
2016-12-18T01:10:27.643Z,807.01
2016-12-18T01:11:27.653Z,808.08
2016-12-18T01:12:27.660Z,809.05
2016-12-18T01:13:27.639Z,809.07
2016-12-18T01:14:27.661Z,809.48
2016-12-18T01:15:27.664Z,810.62
2016-12-18T01:16:27.645Z,810.93
2016-12-18T01:17:27.670Z,811.41
2016-12-18T01:18:27.664Z,812.35
2016-12-18T01:19:27.666Z,812.21
2016-12-18T01:20:27.647Z,812.81
2016-12-18T01:21:27.658Z,812.78
2016-12-18T01:22:27.665Z,813.53
2016-12-18T01:23:27.677Z,814.28
2016-12-18T01:24:27.661Z,813.64
2016-12-18T01:25:27.674Z,813.78
2016-12-18T01:26:27.657Z,813.49
2016-12-18T01:27:27.665Z,814.1
2016-12-18T01:28:27.666Z,814.08
2016-12-18T01:29:27.654Z,814.71
2016-12-18T01:30:27.666Z,814.62
2016-12-18T01:31:27.660Z,815
2016-12-18T01:32:27.668Z,815.6
2016-12-18T01:33:27.692Z,815.56
2016-12-18T01:34:27.677Z,815.67
2016-12-18T01:35:27.685Z,815.31
2016-12-18T01:36:27.743Z,814.82
2016-12-18T01:37:27.678Z,815.42
2016-12-18T01:38:27.685Z,815.45
2016-12-18T01:39:27.687Z,814.5
2016-12-18T01:40:27.682Z,815.33
2016-12-18T01:41:27.734Z,815.64
2016-12-18T01:42:27.679Z,814.46
2016-12-18T01:43:27.687Z,815.07
2016-12-18T01:44:27.702Z,814.56
2016-12-18T01:45:27.706Z,814.12
2016-12-18T01:46:27.714Z,814.11
2016-12-18T01:47:27.700Z,814.26
2016-12-18T01:48:27.695Z,813.61
2016-12-18T01:49:27.692Z,813.93
2016-12-18T01:50:27.695Z,813.28
2016-12-18T01:51:27.713Z,813.08
2016-12-18T01:52:27.691Z,812.21
2016-12-18T01:53:27.726Z,812.35
2016-12-18T01:54:27.709Z,811.89
2016-12-18T01:55:27.707Z,811.82
2016-12-18T01:56:27.697Z,811.11
2016-12-18T01:57:27.703Z,810.49
2016-12-18T01:58:27.696Z,809.9
2016-12-18T01:59:27.719Z,809.12
2016-12-18T02:00:27.692Z,807.86
2016-12-18T02:01:27.702Z,807.55
2016-12-18T02:02:27.694Z,805.65
2016-12-18T02:03:27.707Z,806.64
2016-12-18T02:04:27.707Z,806.76
2016-12-18T02:05:27.697Z,806.85
2016-12-18T02:06:27.706Z,805.74
2016-12-18T02:07:27.710Z,806.46
2016-12-18T02:08:27.702Z,806.17
2016-12-18T02:09:27.711Z,806.54
2016-12-18T02:10:27.718Z,806.52
2016-12-18T02:11:27.713Z,806.68
2016-12-18T02:12:27.717Z,806.88
2016-12-18T02:13:27.729Z,807.93
2016-12-18T02:14:27.729Z,807.59
2016-12-18T02:15:27.711Z,807.85
2016-12-18T02:16:27.789Z,808.8
2016-12-18T02:17:27.724Z,808.49
2016-12-18T02:18:27.716Z,809.1
2016-12-18T02:19:27.742Z,809.04
2016-12-18T02:20:27.730Z,808.9
2016-12-18T02:21:27.728Z,809.55
2016-12-18T02:22:27.742Z,809.41
2016-12-18T02:23:27.749Z,809.92
2016-12-18T02:24:27.729Z,809.92
2016-12-18T02:25:27.728Z,810.68
2016-12-18T02:26:28.215Z,811.15
2016-12-18T02:27:27.736Z,810.9
2016-12-18T02:28:27.729Z,811.71
2016-12-18T02:29:27.740Z,812.6
2016-12-18T02:30:27.732Z,812.75
2016-12-18T02:31:27.738Z,812.95
2016-12-18T02:32:27.823Z,813.77
2016-12-18T02:33:27.757Z,813.95
2016-12-18T02:34:27.750Z,814.17
2016-12-18T02:35:27.760Z,814.95
2016-12-18T02:36:27.746Z,815.18
2016-12-18T02:37:27.748Z,815.66
2016-12-18T02:38:27.746Z,815.93
2016-12-18T02:39:27.751Z,816.2
2016-12-18T02:40:27.766Z,817.02
2016-12-18T02:41:27.755Z,817.36
2016-12-18T02:42:27.747Z,817.47
2016-12-18T02:43:27.779Z,817.98
2016-12-18T02:44:27.785Z,818.39
2016-12-18T02:45:27.808Z,819
2016-12-18T02:46:27.768Z,819.94
2016-12-18T02:47:27.760Z,819.94
2016-12-18T02:48:27.770Z,820.4
2016-12-18T02:49:27.765Z,820.84
2016-12-18T02:50:27.785Z,821.47
2016-12-18T02:51:27.768Z,822.12
2016-12-18T02:52:27.768Z,821.96
2016-12-18T02:53:27.749Z,822.57
2016-12-18T02:54:27.779Z,822.74
2016-12-18T02:55:27.787Z,823.17
2016-12-18T02:56:27.770Z,823.04
2016-12-18T02:57:27.777Z,823.65
2016-12-18T02:58:27.784Z,823.96
2016-12-18T02:59:27.794Z,823.83
2016-12-18T03:00:27.772Z,824.77
2016-12-18T03:01:27.898Z,824.73
2016-12-18T03:02:27.800Z,825.34
2016-12-18T03:03:27.792Z,826.44
2016-12-18T03:04:27.799Z,826.29
2016-12-18T03:05:27.784Z,826.57
2016-12-18T03:06:27.780Z,826.22
2016-12-18T03:07:27.796Z,825.95
2016-12-18T03:08:27.781Z,825.9
2016-12-18T03:09:27.791Z,825.97
2016-12-18T03:10:27.798Z,826.89
2016-12-18T03:11:27.817Z,826.75
2016-12-18T03:12:27.810Z,826.91
2016-12-18T03:13:27.817Z,827.04
2016-12-18T03:14:27.821Z,828.31
2016-12-18T03:15:27.831Z,827.66
2016-12-18T03:16:28.118Z,827.96
2016-12-18T03:17:27.828Z,828.71
2016-12-18T03:18:27.838Z,829.97
2016-12-18T03:19:27.860Z,830.14
2016-12-18T03:20:27.811Z,830.42
2016-12-18T03:21:27.798Z,831.16
2016-12-18T03:22:27.807Z,831.14
2016-12-18T03:23:27.802Z,832.41
2016-12-18T03:24:27.806Z,832.53
2016-12-18T03:25:27.807Z,832.1
2016-12-18T03:26:27.802Z,832.1
2016-12-18T03:27:27.803Z,831.83
2016-12-18T03:28:27.806Z,831.8
2016-12-18T03:29:27.806Z,831.33
2016-12-18T03:30:27.809Z,832.25
2016-12-18T03:31:27.817Z,831.59
2016-12-18T03:32:27.813Z,832.49
2016-12-18T03:33:27.806Z,832.33
2016-12-18T03:34:27.808Z,832.3
2016-12-18T03:35:27.816Z,831.86
2016-12-18T03:36:27.840Z,832.31
2016-12-18T03:37:27.804Z,832.35
2016-12-18T03:38:27.862Z,832.35
2016-12-18T03:39:27.821Z,832.46
2016-12-18T03:40:27.849Z,832.62
2016-12-18T03:41:27.850Z,832.96
2016-12-18T03:42:27.818Z,833.6
2016-12-18T03:43:27.871Z,833.44
2016-12-18T03:44:27.852Z,833.65
2016-12-18T03:45:27.849Z,833.38
2016-12-18T03:46:27.849Z,833.6
2016-12-18T03:47:27.836Z,833.54
2016-12-18T03:48:27.830Z,833.69
2016-12-18T03:49:27.822Z,833.56
2016-12-18T03:50:27.831Z,833.95
2016-12-18T03:51:27.831Z,834.12
2016-12-18T03:52:27.837Z,834.09
2016-12-18T03:53:27.845Z,834.71
2016-12-18T03:54:27.852Z,834.83
2016-12-18T03:55:27.838Z,835.17
2016-12-18T03:56:27.852Z,835.81
2016-12-18T03:57:27.843Z,835.63
2016-12-18T03:58:27.849Z,836.54
2016-12-18T03:59:27.854Z,836.55
2016-12-18T04:00:27.854Z,836.66
2016-12-18T04:01:27.862Z,837.02
2016-12-18T04:02:27.856Z,837.3
2016-12-18T04:03:27.846Z,837.36
2016-12-18T04:04:27.881Z,837.46
2016-12-18T04:05:27.853Z,836.83
2016-12-18T04:06:27.843Z,836.94
2016-12-18T04:07:27.845Z,836.28
2016-12-18T04:08:27.862Z,835.83
2016-12-18T04:09:27.859Z,835.52
2016-12-18T04:10:27.857Z,835.03
2016-12-18T04:11:27.856Z,835.26
2016-12-18T04:12:27.849Z,834.95
2016-12-18T04:13:27.857Z,833.82
2016-12-18T04:14:27.858Z,833
2016-12-18T04:15:27.868Z,832.54
2016-12-18T04:16:27.859Z,832.05
2016-12-18T04:17:27.854Z,831.45
2016-12-18T04:18:27.859Z,831.55
2016-12-18T04:19:27.929Z,830.95
2016-12-18T04:20:27.861Z,829.55
2016-12-18T04:21:27.883Z,829.36
2016-12-18T04:22:27.862Z,829.35
2016-12-18T04:23:27.873Z,828.67
2016-12-18T04:24:27.886Z,828.37
2016-12-18T04:25:27.893Z,827.74
2016-12-18T04:26:27.956Z,826.08
2016-12-18T04:27:27.948Z,824.98
2016-12-18T04:28:27.887Z,824.14
2016-12-18T04:29:27.870Z,822.9
2016-12-18T04:30:27.873Z,822.17
2016-12-18T04:31:27.891Z,820.02
2016-12-18T04:32:28.421Z,819.01
2016-12-18T04:33:27.871Z,816.73
2016-12-18T04:34:27.888Z,815.85
2016-12-18T04:35:27.919Z,814.93
2016-12-18T04:36:27.926Z,813.71
2016-12-18T04:37:27.950Z,812.77
2016-12-18T04:38:27.921Z,811.84
2016-12-18T04:39:27.919Z,810.1
2016-12-18T04:40:27.951Z,807.71
2016-12-18T04:41:27.912Z,804.67
2016-12-18T04:42:27.932Z,802.71
2016-12-18T04:43:27.935Z,799.3
2016-12-18T04:44:27.927Z,796.82
2016-12-18T04:45:27.932Z,794.06
2016-12-18T04:46:27.927Z,791.98
2016-12-18T04:47:27.932Z,790.6
2016-12-18T04:48:27.920Z,788.78
2016-12-18T04:49:27.928Z,786.82
2016-12-18T04:50:27.913Z,785.85
2016-12-18T04:51:27.912Z,784.69
2016-12-18T04:52:27.911Z,783.07
2016-12-18T04:53:27.940Z,781.94
2016-12-18T04:54:27.920Z,780.84
2016-12-18T04:55:27.917Z,779.58
2016-12-18T04:56:27.904Z,778.84
2016-12-18T04:57:27.902Z,777.57
2016-12-18T04:58:27.946Z,776.73
2016-12-18T04:59:27.908Z,775.77
2016-12-18T05:00:27.911Z,775.11
2016-12-18T05:01:27.949Z,774.21
2016-12-18T05:02:27.912Z,772.93
2016-12-18T05:03:27.908Z,771.57
2016-12-18T05:04:27.947Z,770.7
2016-12-18T05:05:27.939Z,770.27
2016-12-18T05:06:27.960Z,769.82
2016-12-18T05:07:27.960Z,768.16
2016-12-18T05:08:27.925Z,767.35
2016-12-18T05:09:27.921Z,766.81
2016-12-18T05:10:27.967Z,766.02
2016-12-18T05:11:27.970Z,765.28
2016-12-18T05:12:27.971Z,765.06
2016-12-18T05:13:27.957Z,764.04
2016-12-18T05:14:27.923Z,763.85
2016-12-18T05:15:27.928Z,762.69
2016-12-18T05:16:27.981Z,762.26
2016-12-18T05:17:27.929Z,762.11
2016-12-18T05:18:27.938Z,761.46
2016-12-18T05:19:27.942Z,760.22
2016-12-18T05:20:27.952Z,760.42
2016-12-18T05:21:27.937Z,759.26
2016-12-18T05:22:27.971Z,759.26
2016-12-18T05:23:27.938Z,759.15
2016-12-18T05:24:27.938Z,758.47
2016-12-18T05:25:27.943Z,758.01
2016-12-18T05:26:27.946Z,758.51
2016-12-18T05:27:27.949Z,759.36
2016-12-18T05:28:27.943Z,759.68
2016-12-18T05:29:27.944Z,760.15
2016-12-18T05:30:27.936Z,760.89
2016-12-18T05:31:28.061Z,761.55
2016-12-18T05:32:27.959Z,762.34
2016-12-18T05:33:27.959Z,763.17
2016-12-18T05:34:27.943Z,764.34
2016-12-18T05:35:27.944Z,766.48
2016-12-18T05:36:27.963Z,766.8
2016-12-18T05:37:27.954Z,766.89
2016-12-18T05:38:28.001Z,767.35
2016-12-18T05:39:27.985Z,767
2016-12-18T05:40:27.967Z,767.17
2016-12-18T05:41:27.967Z,766.86
2016-12-18T05:42:27.963Z,767.07
2016-12-18T05:43:27.969Z,766.38
2016-12-18T05:44:27.975Z,766.1
2016-12-18T05:45:28.042Z,766.44
2016-12-18T05:46:27.972Z,765.99
2016-12-18T05:47:27.961Z,765.63
2016-12-18T05:48:27.968Z,765.6
2016-12-18T05:49:28.040Z,765.45
2016-12-18T05:50:27.977Z,764.24
2016-12-18T05:51:27.989Z,764.28
2016-12-18T05:52:27.985Z,764.56
2016-12-18T05:53:27.980Z,764.1
2016-12-18T05:54:27.969Z,764.67
2016-12-18T05:55:27.964Z,764.71
2016-12-18T05:56:27.982Z,765.8
2016-12-18T05:57:28.002Z,766.17
2016-12-18T05:58:27.984Z,767.94
2016-12-18T05:59:27.980Z,768.59
2016-12-18T06:00:27.997Z,769.5
2016-12-18T06:01:27.983Z,771.3
2016-12-18T06:02:27.985Z,772.76
2016-12-18T06:03:27.991Z,774.38
2016-12-18T06:04:27.999Z,775.78
2016-12-18T06:05:27.988Z,777.33
2016-12-18T06:06:27.990Z,779.34
2016-12-18T06:07:27.993Z,780.45
2016-12-18T06:08:27.984Z,781.84
2016-12-18T06:09:28.038Z,782.91
2016-12-18T06:10:28.020Z,783.94
2016-12-18T06:11:27.985Z,785.35
2016-12-18T06:12:27.993Z,786.49
2016-12-18T06:13:27.999Z,786.92
2016-12-18T06:14:27.991Z,788.06
2016-12-18T06:15:27.996Z,789.45
2016-12-18T06:16:27.995Z,790.17
2016-12-18T06:17:28.017Z,791.01
2016-12-18T06:18:28.001Z,791.26
2016-12-18T06:19:28.004Z,791.62
2016-12-18T06:20:27.995Z,791.92
2016-12-18T06:21:28.006Z,792.25
2016-12-18T06:22:28.006Z,792.74
2016-12-18T06:23:28.009Z,792.27
2016-12-18T06:24:28.009Z,793.11
2016-12-18T06:25:28.006Z,793.09
2016-12-18T06:26:28.013Z,792.93
2016-12-18T06:27:28.025Z,793.78
2016-12-18T06:28:28.002Z,794.31
2016-12-18T06:29:28.012Z,794.47
2016-12-18T06:30:28.004Z,795.1
2016-12-18T06:31:28.009Z,796.06
2016-12-18T06:32:28.016Z,796.26
2016-12-18T06:33:28.029Z,797.55
2016-12-18T06:34:28.033Z,798.22
2016-12-18T06:35:28.031Z,798.64
2016-12-18T06:36:28.031Z,798.95
2016-12-18T06:37:28.031Z,799.53
2016-12-18T06:38:28.027Z,800.27
2016-12-18T06:39:28.016Z,800.89
2016-12-18T06:40:28.022Z,801.23
2016-12-18T06:41:28.025Z,801.63
2016-12-18T06:42:28.045Z,801.73
2016-12-18T06:43:28.040Z,801.89
2016-12-18T06:44:28.041Z,802.35
2016-12-18T06:45:28.041Z,802.55
2016-12-18T06:46:28.036Z,802.82
2016-12-18T06:47:28.059Z,802.86
2016-12-18T06:48:28.038Z,803.51
2016-12-18T06:49:28.049Z,803.62
2016-12-18T06:50:28.043Z,804.06
2016-12-18T06:51:28.056Z,804.01
2016-12-18T06:52:28.037Z,804.48
2016-12-18T06:53:28.031Z,804.64
2016-12-18T06:54:28.049Z,804.83
2016-12-18T06:55:28.037Z,805.44
2016-12-18T06:56:28.033Z,805.79
2016-12-18T06:57:28.049Z,805.93
2016-12-18T06:58:28.043Z,806.94
2016-12-18T06:59:28.041Z,807.5
2016-12-18T07:00:28.046Z,807.53
2016-12-18T07:01:28.061Z,807.49
2016-12-18T07:02:28.079Z,808.14
2016-12-18T07:03:28.053Z,808.71
2016-12-18T07:04:28.078Z,809.1
2016-12-18T07:05:28.059Z,809.57
2016-12-18T07:06:28.065Z,809
2016-12-18T07:07:28.047Z,808.99
2016-12-18T07:08:28.067Z,809.15
2016-12-18T07:09:28.070Z,809.27
2016-12-18T07:10:28.139Z,809.11
2016-12-18T07:11:28.055Z,808.65
2016-12-18T07:12:28.063Z,809.16
2016-12-18T07:13:28.057Z,808.71
2016-12-18T07:14:28.057Z,808.65
2016-12-18T07:15:28.068Z,808.22
2016-12-18T07:16:28.068Z,807.55
2016-12-18T07:17:28.073Z,807.54
2016-12-18T07:18:28.103Z,806.44
2016-12-18T07:19:28.089Z,806.76
2016-12-18T07:20:28.071Z,805.39
2016-12-18T07:21:28.086Z,805.61
2016-12-18T07:22:28.077Z,805.42
2016-12-18T07:23:28.070Z,805.52
2016-12-18T07:24:28.074Z,805.22
2016-12-18T07:25:28.070Z,804.8
2016-12-18T07:26:28.081Z,805.06
2016-12-18T07:27:28.087Z,804.94
2016-12-18T07:28:28.077Z,804.97
2016-12-18T07:29:28.079Z,805.37
2016-12-18T07:30:28.081Z,805.83
2016-12-18T07:31:28.079Z,806.02
2016-12-18T07:32:28.087Z,807.12
2016-12-18T07:33:28.085Z,807.41
2016-12-18T07:34:28.084Z,807.84
2016-12-18T07:35:28.090Z,807.49
2016-12-18T07:36:28.080Z,808.13
2016-12-18T07:37:28.105Z,808.92
2016-12-18T07:38:28.095Z,809.53
2016-12-18T07:39:28.100Z,809.82
2016-12-18T07:40:28.093Z,809.32
2016-12-18T07:41:28.109Z,809.21
2016-12-18T07:42:28.091Z,809.17
2016-12-18T07:43:28.101Z,809.65
2016-12-18T07:44:28.091Z,809.03
2016-12-18T07:45:28.106Z,809
2016-12-18T07:46:28.111Z,808.54
2016-12-18T07:47:28.120Z,808
2016-12-18T07:48:28.100Z,807.83
2016-12-18T07:49:28.104Z,807.79
2016-12-18T07:50:28.124Z,807
2016-12-18T07:51:28.124Z,806.14
2016-12-18T07:52:28.139Z,804.75
2016-12-18T07:53:28.148Z,803.26
2016-12-18T07:54:28.154Z,801.43
2016-12-18T07:55:28.148Z,800.3
2016-12-18T07:56:28.157Z,799.23
2016-12-18T07:57:28.143Z,798.07
2016-12-18T07:58:28.142Z,797.93
2016-12-18T07:59:28.128Z,798.14
2016-12-18T08:00:28.165Z,797.33
2016-12-18T08:01:28.131Z,797.09
2016-12-18T08:02:28.145Z,797.18
2016-12-18T08:03:28.213Z,797.48
2016-12-18T08:04:28.180Z,797.38
2016-12-18T08:05:28.137Z,797.4
2016-12-18T08:06:28.172Z,797.02
2016-12-18T08:07:28.148Z,797.22
2016-12-18T08:08:28.131Z,796.83
2016-12-18T08:09:28.154Z,796.65
2016-12-18T08:10:28.304Z,796.47
2016-12-18T08:11:28.154Z,795.98
2016-12-18T08:12:28.141Z,796.81
2016-12-18T08:13:28.154Z,797.19
2016-12-18T08:14:28.162Z,797.48
2016-12-18T08:15:28.151Z,797.64
2016-12-18T08:16:28.152Z,798.21
2016-12-18T08:17:28.167Z,798.77
2016-12-18T08:18:28.177Z,798.49
2016-12-18T08:19:28.171Z,798.82
2016-12-18T08:20:28.156Z,798.83
2016-12-18T08:21:28.225Z,799.46
2016-12-18T08:22:28.177Z,800.06
2016-12-18T08:23:28.746Z,801.16
2016-12-18T08:24:28.178Z,802.58
2016-12-18T08:25:29.042Z,802.83
2016-12-18T08:26:28.177Z,804.05
2016-12-18T08:27:28.180Z,805.64
2016-12-18T08:28:28.173Z,806.92
2016-12-18T08:29:28.180Z,807.89
2016-12-18T08:30:28.199Z,809.13
2016-12-18T08:31:28.178Z,809.88
2016-12-18T08:32:28.212Z,810.96
2016-12-18T08:33:28.153Z,812.34
2016-12-18T08:34:28.166Z,813.28
2016-12-18T08:35:28.156Z,814.05
2016-12-18T08:36:28.163Z,814.52
2016-12-18T08:37:28.185Z,815.28
2016-12-18T08:38:28.161Z,816.22
2016-12-18T08:39:28.165Z,816.8
2016-12-18T08:40:28.167Z,817.39
2016-12-18T08:41:28.158Z,818.47
2016-12-18T08:42:28.165Z,819.46
2016-12-18T08:43:28.190Z,819.6
2016-12-18T08:44:28.177Z,820.23
2016-12-18T08:45:28.233Z,820.66
2016-12-18T08:46:28.170Z,821.54
2016-12-18T08:47:28.190Z,822.58
2016-12-18T08:48:28.226Z,823.97
2016-12-18T08:49:28.160Z,826
2016-12-18T08:50:28.173Z,829.27
2016-12-18T08:51:28.175Z,832
2016-12-18T08:52:28.191Z,835.56
2016-12-18T08:53:28.197Z,839.08
2016-12-18T08:54:28.189Z,842.54
2016-12-18T08:55:28.172Z,843.78
2016-12-18T08:56:28.178Z,846.59
2016-12-18T08:57:28.170Z,847.75
2016-12-18T08:58:28.178Z,850.2
2016-12-18T08:59:28.168Z,852.12
2016-12-18T09:00:28.220Z,853.33
2016-12-18T09:01:28.184Z,854.31
2016-12-18T09:02:28.282Z,856.05
2016-12-18T09:03:28.193Z,858.47
2016-12-18T09:04:28.186Z,861.08
2016-12-18T09:05:28.215Z,863.23
2016-12-18T09:06:28.218Z,863.83
2016-12-18T09:07:28.194Z,865.52
2016-12-18T09:08:28.199Z,866.93
2016-12-18T09:09:28.196Z,868.93
2016-12-18T09:10:28.205Z,870.37
2016-12-18T09:11:28.202Z,871.91
2016-12-18T09:12:28.198Z,873.12
2016-12-18T09:13:28.197Z,874.42
2016-12-18T09:14:28.207Z,874.95
2016-12-18T09:15:28.249Z,875.21
2016-12-18T09:16:28.204Z,875.33
2016-12-18T09:17:28.201Z,877.55
2016-12-18T09:18:28.240Z,877.91
2016-12-18T09:19:28.213Z,878.32
2016-12-18T09:20:28.211Z,879.13
2016-12-18T09:21:28.218Z,879.26
2016-12-18T09:22:28.241Z,879.97
2016-12-18T09:23:28.219Z,880.26
2016-12-18T09:24:28.218Z,880.58
2016-12-18T09:25:28.235Z,879.91
2016-12-18T09:26:28.218Z,879.98
2016-12-18T09:27:28.285Z,880.01
2016-12-18T09:28:28.213Z,880.1
2016-12-18T09:29:28.236Z,880.41
2016-12-18T09:30:28.258Z,880.26
2016-12-18T09:31:28.209Z,880.83
2016-12-18T09:32:28.228Z,882.66
2016-12-18T09:33:28.224Z,883.15
2016-12-18T09:34:28.283Z,884.46
2016-12-18T09:35:28.263Z,886.26
2016-12-18T09:36:28.227Z,887.72
2016-12-18T09:37:28.227Z,888.79
2016-12-18T09:38:28.252Z,890.29
2016-12-18T09:39:28.235Z,891.74
2016-12-18T09:40:28.259Z,892.39
2016-12-18T09:41:28.245Z,893.24
2016-12-18T09:42:28.277Z,893.88
2016-12-18T09:43:28.265Z,895.14
2016-12-18T09:44:28.248Z,895.23
2016-12-18T09:45:28.302Z,895.89
2016-12-18T09:46:28.262Z,897.39
2016-12-18T09:47:28.258Z,899.58
2016-12-18T09:48:28.249Z,901.05
2016-12-18T09:49:28.357Z,901.75
2016-12-18T09:50:28.300Z,902.76
2016-12-18T09:51:28.244Z,903.03
2016-12-18T09:52:28.248Z,903.67
2016-12-18T09:53:28.247Z,905.49
2016-12-18T09:54:28.250Z,906.96
2016-12-18T09:55:28.253Z,907.86
2016-12-18T09:56:28.255Z,909.13
2016-12-18T09:57:28.254Z,910.45
2016-12-18T09:58:28.277Z,911.54
2016-12-18T09:59:28.260Z,912.91
2016-12-18T10:00:28.287Z,914.44
2016-12-18T10:01:28.332Z,915.76
2016-12-18T10:02:28.258Z,917.59
2016-12-18T10:03:28.263Z,919.33
2016-12-18T10:04:28.259Z,920.89
2016-12-18T10:05:28.263Z,923.52
2016-12-18T10:06:28.284Z,925.58
2016-12-18T10:07:28.276Z,928.19
2016-12-18T10:08:28.262Z,930.19
2016-12-18T10:09:28.282Z,931.27
2016-12-18T10:10:28.286Z,932.1
2016-12-18T10:11:28.302Z,932.27
2016-12-18T10:12:28.289Z,932.53
2016-12-18T10:13:28.286Z,933.02
2016-12-18T10:14:28.325Z,933.88
2016-12-18T10:15:28.292Z,935.07
2016-12-18T10:16:28.285Z,935.85
2016-12-18T10:17:28.280Z,936.86
2016-12-18T10:18:28.282Z,937.89
2016-12-18T10:19:28.291Z,939.21
2016-12-18T10:20:28.295Z,940.08
2016-12-18T10:21:28.291Z,941.28
2016-12-18T10:22:28.296Z,941.78
2016-12-18T10:23:29.000Z,941.79
2016-12-18T10:24:28.286Z,941.91
2016-12-18T10:25:28.292Z,942.43
2016-12-18T10:26:28.288Z,943.19
2016-12-18T10:27:28.304Z,944.21
2016-12-18T10:28:28.295Z,945.91
2016-12-18T10:29:28.313Z,946.82
2016-12-18T10:30:28.363Z,948.03
2016-12-18T10:31:28.291Z,949.26
2016-12-18T10:32:28.307Z,949.84
2016-12-18T10:33:28.319Z,951.22
2016-12-18T10:34:28.307Z,952.36
2016-12-18T10:35:28.316Z,954.15
2016-12-18T10:36:28.308Z,955.71
2016-12-18T10:37:28.313Z,957.15
2016-12-18T10:38:28.305Z,958.35
2016-12-18T10:39:28.301Z,959.1
2016-12-18T10:40:28.314Z,961.26
2016-12-18T10:41:28.322Z,963
2016-12-18T10:42:28.324Z,965.2
2016-12-18T10:43:28.321Z,967.04
2016-12-18T10:44:28.322Z,968.63
2016-12-18T10:45:28.332Z,970.87
2016-12-18T10:46:28.337Z,973.45
2016-12-18T10:47:28.319Z,975.46
2016-12-18T10:48:28.335Z,976.91
2016-12-18T10:49:28.320Z,978.53
2016-12-18T10:50:38.295Z,980.27
2016-12-18T10:51:28.323Z,981.57
2016-12-18T10:52:28.339Z,982.9
2016-12-18T10:53:28.334Z,982.44
2016-12-18T10:54:28.338Z,982.88
2016-12-18T10:55:28.349Z,982.76
2016-12-18T10:56:28.401Z,982.71
2016-12-18T10:57:28.340Z,982.96
2016-12-18T10:58:28.353Z,982
2016-12-18T10:59:28.330Z,981.87
2016-12-18T11:00:28.347Z,981.92
2016-12-18T11:01:28.334Z,981.78
2016-12-18T11:02:28.349Z,982.25
2016-12-18T11:03:28.359Z,982.9
2016-12-18T11:04:28.745Z,983.94
2016-12-18T11:05:29.183Z,985.33
2016-12-18T11:06:29.182Z,986.12
2016-12-18T11:07:29.360Z,986.08
2016-12-18T11:08:29.123Z,985.71
2016-12-18T11:09:29.009Z,985.48
2016-12-18T11:10:28.867Z,985.79
2016-12-18T11:11:29.172Z,985.48
2016-12-18T11:12:29.134Z,986.55
2016-12-18T11:13:29.053Z,987.34
2016-12-18T11:14:29.029Z,987.34
2016-12-18T11:15:29.061Z,987.04
2016-12-18T11:16:29.164Z,986.68
2016-12-18T11:17:29.027Z,987.27
2016-12-18T11:18:28.903Z,987.25
2016-12-18T11:19:28.352Z,987.35
2016-12-18T11:20:28.349Z,986.67
2016-12-18T11:21:28.392Z,986.3
2016-12-18T11:22:28.347Z,986.38
2016-12-18T11:23:28.352Z,986.24
2016-12-18T11:24:32.162Z,987.19
2016-12-18T11:25:28.377Z,988.62
2016-12-18T11:26:28.379Z,988.93
2016-12-18T11:27:28.353Z,989.76
2016-12-18T11:28:28.359Z,990.25
2016-12-18T11:29:28.371Z,990.07
2016-12-18T11:30:28.368Z,989.96
2016-12-18T11:31:28.386Z,989.69
2016-12-18T11:32:28.365Z,988.74
2016-12-18T11:33:28.372Z,988.43
2016-12-18T11:34:28.376Z,988.02
2016-12-18T11:35:28.381Z,988.43
2016-12-18T11:36:28.385Z,988.76
2016-12-18T11:37:28.395Z,989.75
2016-12-18T11:38:28.373Z,990.43
2016-12-18T11:39:28.393Z,990.5
2016-12-18T11:40:28.754Z,991.49
2016-12-18T11:41:28.395Z,991.87
2016-12-18T11:42:28.389Z,991.48
2016-12-18T11:46:56.921Z,987.38
2016-12-18T11:47:56.915Z,986.73
2016-12-18T11:48:56.923Z,986.27
2016-12-18T11:49:56.922Z,985.41
2016-12-18T11:50:56.917Z,984.63
2016-12-18T11:51:56.917Z,983.61
2016-12-18T11:52:56.920Z,982.71
2016-12-18T11:53:56.919Z,982.81
2016-12-18T11:54:56.926Z,983.13
2016-12-18T11:55:56.925Z,983.33
2016-12-18T11:56:56.940Z,983.39
2016-12-18T11:57:56.931Z,984.05
2016-12-18T11:58:56.939Z,984.01
2016-12-18T11:59:56.930Z,985.02
2016-12-18T12:00:56.937Z,985.18
2016-12-18T12:01:56.949Z,985.98
2016-12-18T12:02:56.943Z,986.07
2016-12-18T12:03:56.928Z,986.75
2016-12-18T12:04:56.948Z,987.3
2016-12-18T12:05:56.922Z,987.38
2016-12-18T12:06:56.952Z,987.05
2016-12-18T12:07:56.933Z,987.14
2016-12-18T12:08:56.975Z,987.08
2016-12-18T12:09:56.975Z,986.87
2016-12-18T12:10:56.938Z,986.72
2016-12-18T12:11:56.967Z,987.34
2016-12-18T12:12:56.960Z,987.41
2016-12-18T12:13:56.951Z,987.8
2016-12-18T12:14:56.933Z,988.94
2016-12-18T12:15:56.938Z,989.88
2016-12-18T12:16:57.372Z,990.47
2016-12-18T12:17:56.953Z,991.19
2016-12-18T12:18:56.960Z,992.57
2016-12-18T12:19:56.987Z,993.35
2016-12-18T12:20:56.958Z,995.16
2016-12-18T12:21:57.017Z,996.23
2016-12-18T12:22:56.956Z,997.77
2016-12-18T12:23:57.091Z,998.76
2016-12-18T12:24:57.318Z,999.6
2016-12-18T12:25:57.441Z,999.72
2016-12-18T12:26:56.977Z,999.6
2016-12-18T12:27:56.960Z,999.81
2016-12-18T12:28:56.958Z,1000.61
2016-12-18T12:29:56.974Z,1000.84
2016-12-18T12:30:57.002Z,1001.79
2016-12-18T12:31:56.973Z,1002.71
2016-12-18T12:32:56.977Z,1003.38
2016-12-18T12:33:56.960Z,1003.3
2016-12-18T12:34:57.000Z,1003.63